createdAt,value
2023-05-10T00:01:42.958Z,15.40
2023-05-10T00:04:10.126Z,16.23
2023-05-10T00:06:37.240Z,13.80
2023-05-10T00:09:04.318Z,14.97
2023-05-10T00:11:31.397Z,15.97
2023-05-10T00:13:59.767Z,16.20
2023-05-10T00:16:26.865Z,16.77
2023-05-10T00:18:53.985Z,15.27
2023-05-10T00:21:21.381Z,17.37
2023-05-10T00:23:48.463Z,18.07
2023-05-10T00:26:15.501Z,16.27
2023-05-10T00:28:45.707Z,16.57
2023-05-10T00:31:14.126Z,17.17
2023-05-10T00:33:41.244Z,17.63
2023-05-10T00:36:08.660Z,17.60
2023-05-10T00:38:35.767Z,17.50
2023-05-10T00:41:03.753Z,17.20
2023-05-10T00:43:32.861Z,14.53
2023-05-10T00:46:00.091Z,15.93
2023-05-10T00:48:30.074Z,16.33
2023-05-10T00:50:57.130Z,18.80
2023-05-10T00:53:25.001Z,17.57
2023-05-10T00:55:52.135Z,20.40
2023-05-10T00:58:19.843Z,18.60
2023-05-10T01:00:47.957Z,17.90
2023-05-10T01:03:15.096Z,18.80
2023-05-10T01:05:43.605Z,21.50
2023-05-10T01:08:10.681Z,19.50
2023-05-10T01:10:37.795Z,20.27
2023-05-10T01:13:04.883Z,18.63
2023-05-10T01:15:32.526Z,16.33
2023-05-10T01:17:59.766Z,13.37
2023-05-10T01:20:29.577Z,9.40
2023-05-10T01:23:14.402Z,11.20
2023-05-10T01:25:59.598Z,11.63
2023-05-10T01:28:47.570Z,11.70
2023-05-10T01:31:24.262Z,11.87
2023-05-10T01:33:56.122Z,11.93
2023-05-10T01:36:28.733Z,12.53
2023-05-10T01:38:59.113Z,13.63
2023-05-10T01:41:29.808Z,11.63
2023-05-10T01:43:59.038Z,11.50
2023-05-10T01:46:28.885Z,13.20
2023-05-10T01:48:59.339Z,11.30
2023-05-10T01:51:29.047Z,12.53
2023-05-10T01:53:59.993Z,10.67
2023-05-10T01:56:27.849Z,11.87
2023-05-10T01:58:56.045Z,12.70
2023-05-10T02:01:23.522Z,14.03
2023-05-10T02:03:52.281Z,12.80
2023-05-10T02:06:22.436Z,13.67
2023-05-10T02:08:50.977Z,13.70
2023-05-10T02:11:19.228Z,14.43
2023-05-10T02:13:46.602Z,13.67
2023-05-10T02:16:14.890Z,14.43
2023-05-10T02:18:42.574Z,14.90
2023-05-10T02:21:09.994Z,17.33
2023-05-10T02:23:41.073Z,15.17
2023-05-10T02:26:09.645Z,14.33
2023-05-10T02:28:37.140Z,15.00
2023-05-10T02:31:04.908Z,15.77
2023-05-10T02:33:33.184Z,14.43
2023-05-10T02:36:00.585Z,14.50
2023-05-10T02:38:28.389Z,15.13
2023-05-10T02:40:57.088Z,16.20
2023-05-10T02:43:24.481Z,15.13
2023-05-10T02:45:51.628Z,15.90
2023-05-10T02:48:19.012Z,15.33
2023-05-10T02:50:46.523Z,14.53
2023-05-10T02:53:17.126Z,15.80
2023-05-10T02:55:46.566Z,16.87
2023-05-10T02:58:15.022Z,14.27
2023-05-10T03:00:42.085Z,15.03
2023-05-10T03:03:09.215Z,15.10
2023-05-10T03:05:36.447Z,15.20
2023-05-10T03:08:05.163Z,14.13
2023-05-10T03:10:33.160Z,12.90
2023-05-10T03:13:07.415Z,12.70
2023-05-10T03:15:39.362Z,12.90
2023-05-10T03:18:08.366Z,12.20
2023-05-10T03:20:37.185Z,11.60
2023-05-10T03:23:06.521Z,11.60
2023-05-10T03:25:33.961Z,12.37
2023-05-10T03:28:03.306Z,11.30
2023-05-10T03:30:30.843Z,11.97
2023-05-10T03:32:59.286Z,11.07
2023-05-10T03:35:26.500Z,10.63
2023-05-10T03:37:53.662Z,10.40
2023-05-10T03:40:21.271Z,11.00
2023-05-10T03:42:48.394Z,10.67
2023-05-10T03:45:15.421Z,11.30
2023-05-10T03:47:42.503Z,11.30
2023-05-10T03:50:11.896Z,12.40
2023-05-10T03:52:39.091Z,11.23
2023-05-10T03:55:06.763Z,11.80
2023-05-10T03:57:33.860Z,13.00
2023-05-10T04:00:01.020Z,13.30
2023-05-10T04:02:28.271Z,12.57
2023-05-10T04:04:55.383Z,14.30
2023-05-10T04:07:23.813Z,13.73
2023-05-10T04:09:50.894Z,14.70
2023-05-10T04:12:17.988Z,14.50
2023-05-10T04:14:45.068Z,14.43
2023-05-10T04:17:12.247Z,15.70
2023-05-10T04:19:39.352Z,16.10
2023-05-10T04:22:06.596Z,16.87
2023-05-10T04:24:34.966Z,18.53
2023-05-10T04:27:02.039Z,18.27
2023-05-10T04:29:29.131Z,19.37
2023-05-10T04:31:56.259Z,18.90
2023-05-10T04:34:23.329Z,18.00
2023-05-10T04:36:50.421Z,18.90
2023-05-10T04:39:17.520Z,20.00
2023-05-10T04:41:45.939Z,19.60
2023-05-10T04:44:12.982Z,19.90
2023-05-10T04:46:40.265Z,22.30
2023-05-10T04:49:07.508Z,22.37
2023-05-10T04:51:34.601Z,20.03
2023-05-10T04:54:06.480Z,21.03
2023-05-10T04:56:34.002Z,19.77
2023-05-10T04:59:02.589Z,21.63
2023-05-10T05:01:29.665Z,21.40
2023-05-10T05:03:56.854Z,21.87
2023-05-10T05:06:24.004Z,21.77
2023-05-10T05:08:51.014Z,19.90
2023-05-10T05:11:18.069Z,22.23
2023-05-10T05:13:45.271Z,21.23
2023-05-10T05:16:13.883Z,21.93
2023-05-10T05:18:40.956Z,23.67
2023-05-10T05:21:15.343Z,23.20
2023-05-10T05:23:42.347Z,19.63
2023-05-10T05:26:09.384Z,22.30
2023-05-10T05:28:36.440Z,23.60
2023-05-10T05:31:03.471Z,21.00
2023-05-10T05:33:31.860Z,23.00
2023-05-10T05:35:58.915Z,19.53
2023-05-10T05:38:25.975Z,18.00
2023-05-10T05:40:53.061Z,17.80
2023-05-10T05:43:20.195Z,19.43
2023-05-10T05:45:47.313Z,17.37
2023-05-10T05:48:14.385Z,15.93
2023-05-10T05:50:42.733Z,16.97
2023-05-10T05:53:10.381Z,14.63
2023-05-10T05:55:37.418Z,15.53
2023-05-10T05:58:04.473Z,17.13
2023-05-10T06:00:31.560Z,15.43
2023-05-10T06:02:58.769Z,13.10
2023-05-10T06:05:25.864Z,15.90
2023-05-10T06:07:54.354Z,16.73
2023-05-10T06:10:21.405Z,15.70
2023-05-10T06:12:48.503Z,16.17
2023-05-10T06:15:15.725Z,16.80
2023-05-10T06:17:42.963Z,17.90
2023-05-10T06:20:10.566Z,17.17
2023-05-10T06:22:37.749Z,16.33
2023-05-10T06:25:06.704Z,15.90
2023-05-10T06:27:33.793Z,16.90
2023-05-10T06:30:11.911Z,14.50
2023-05-10T06:32:40.330Z,14.07
2023-05-10T06:35:08.093Z,15.93
2023-05-10T06:37:35.183Z,16.03
2023-05-10T06:40:02.472Z,16.43
2023-05-10T06:42:30.879Z,16.47
2023-05-10T06:44:57.896Z,16.37
2023-05-10T06:47:24.975Z,16.97
2023-05-10T06:49:52.000Z,16.80
2023-05-10T06:52:19.109Z,15.50
2023-05-10T06:54:46.116Z,16.80
2023-05-10T06:57:23.194Z,17.73
2023-05-10T06:59:59.479Z,16.33
2023-05-10T07:02:26.679Z,16.63
2023-05-10T07:04:53.902Z,17.80
2023-05-10T07:07:20.990Z,16.70
2023-05-10T07:09:48.210Z,16.97
2023-05-10T07:12:16.168Z,18.30
2023-05-10T07:14:43.607Z,19.87
2023-05-10T07:17:11.988Z,15.90
2023-05-10T07:19:39.009Z,17.30
2023-05-10T07:22:06.142Z,16.60
2023-05-10T07:24:33.421Z,16.27
2023-05-10T07:27:00.509Z,16.93
2023-05-10T07:29:27.564Z,15.30
2023-05-10T07:31:56.497Z,15.97
2023-05-10T07:34:27.169Z,13.20
2023-05-10T07:36:54.495Z,15.03
2023-05-10T07:39:27.579Z,13.53
2023-05-10T07:41:55.460Z,14.10
2023-05-10T07:44:22.502Z,14.77
2023-05-10T07:46:49.608Z,13.13
2023-05-10T07:49:16.739Z,11.47
2023-05-10T07:51:45.169Z,12.67
2023-05-10T07:54:12.265Z,14.40
2023-05-10T07:56:39.388Z,13.13
2023-05-10T07:59:06.998Z,12.70
2023-05-10T08:01:35.202Z,12.93
2023-05-10T08:04:03.032Z,11.70
2023-05-10T08:06:30.346Z,14.93
2023-05-10T08:08:58.844Z,16.37
2023-05-10T08:11:26.245Z,17.00
2023-05-10T08:13:53.353Z,19.70
2023-05-10T08:16:20.821Z,20.80
2023-05-10T08:18:48.558Z,20.07
2023-05-10T08:21:15.756Z,20.30
2023-05-10T08:23:42.913Z,19.40
2023-05-10T08:26:11.324Z,21.57
2023-05-10T08:28:38.397Z,22.07
2023-05-10T08:31:05.835Z,24.80
2023-05-10T08:33:32.870Z,25.40
2023-05-10T08:35:59.916Z,26.07
2023-05-10T08:38:27.072Z,23.77
2023-05-10T08:40:55.761Z,22.60
2023-05-10T08:43:26.151Z,21.90
2023-05-10T08:45:54.860Z,23.20
2023-05-10T08:48:24.336Z,21.60
2023-05-10T08:50:54.169Z,22.93
2023-05-10T08:53:21.534Z,24.13
2023-05-10T08:55:48.688Z,23.27
2023-05-10T08:58:15.851Z,25.00
2023-05-10T09:00:44.752Z,24.30
2023-05-10T09:03:11.942Z,22.40
2023-05-10T09:05:39.362Z,21.87
2023-05-10T09:08:07.536Z,22.70
2023-05-10T09:10:34.636Z,21.47
2023-05-10T09:13:01.942Z,20.67
2023-05-10T09:15:28.967Z,20.60
2023-05-10T09:17:57.654Z,23.10
2023-05-10T09:20:24.689Z,21.83
2023-05-10T09:22:51.910Z,21.37
2023-05-10T09:25:19.400Z,22.00
2023-05-10T09:27:47.370Z,20.57
2023-05-10T09:30:16.964Z,19.50
2023-05-10T09:32:44.944Z,19.00
2023-05-10T09:35:14.162Z,19.23
2023-05-10T09:37:41.751Z,17.43
2023-05-10T09:40:09.219Z,18.33
2023-05-10T09:42:36.309Z,17.17
2023-05-10T09:45:04.412Z,16.03
2023-05-10T09:47:33.145Z,15.10
2023-05-10T09:50:00.267Z,14.90
2023-05-10T09:52:28.644Z,15.87
2023-05-10T09:54:55.972Z,14.30
2023-05-10T09:57:23.601Z,14.63
2023-05-10T09:59:50.730Z,12.77
2023-05-10T10:02:18.115Z,15.97
2023-05-10T10:04:45.190Z,15.80
2023-05-10T10:07:12.288Z,12.80
2023-05-10T10:09:40.814Z,14.40
2023-05-10T10:12:07.933Z,14.50
2023-05-10T10:14:35.754Z,14.03
2023-05-10T10:19:34.401Z,14.90
2023-05-10T10:22:01.736Z,14.77
2023-05-10T10:24:28.866Z,14.80
2023-05-10T10:26:59.005Z,12.70
2023-05-10T10:29:27.726Z,14.00
2023-05-10T10:32:05.367Z,13.60
2023-05-10T10:34:32.863Z,13.70
2023-05-10T10:37:05.108Z,12.30
2023-05-10T10:39:32.379Z,12.90
2023-05-10T10:42:01.002Z,13.60
2023-05-10T10:44:34.998Z,14.23
2023-05-10T10:47:03.288Z,14.57
2023-05-10T10:49:32.611Z,13.07
2023-05-10T10:52:16.096Z,14.37
2023-05-10T10:54:43.148Z,13.23
2023-05-10T10:57:14.974Z,13.40
2023-05-10T10:59:45.113Z,14.60
2023-05-10T11:02:12.213Z,13.47
2023-05-10T11:04:43.357Z,13.67
2023-05-10T11:07:19.840Z,12.43
2023-05-10T11:09:48.303Z,12.60
2023-05-10T11:12:16.660Z,11.93
2023-05-10T11:14:43.832Z,13.43
2023-05-10T11:17:26.571Z,12.43
2023-05-10T11:20:09.343Z,12.50
2023-05-10T11:22:50.771Z,13.00
2023-05-10T11:25:17.849Z,13.10
2023-05-10T11:27:46.766Z,13.47
2023-05-10T11:30:14.443Z,14.50
2023-05-10T11:32:42.155Z,13.57
2023-05-10T11:35:09.481Z,13.47
2023-05-10T11:37:36.610Z,13.67
2023-05-10T11:40:03.778Z,15.03
2023-05-10T11:42:30.858Z,13.77
2023-05-10T11:44:59.235Z,14.30
2023-05-10T11:47:26.346Z,13.50
2023-05-10T11:49:53.576Z,13.23
2023-05-10T11:52:20.937Z,14.23
2023-05-10T11:54:52.665Z,15.03
2023-05-10T11:57:19.915Z,13.70
2023-05-10T11:59:46.952Z,13.70
2023-05-10T12:02:15.618Z,13.37
2023-05-10T12:04:43.177Z,14.80
2023-05-10T12:07:10.553Z,13.53
2023-05-10T12:09:43.760Z,14.40
2023-05-10T12:12:11.813Z,14.40
2023-05-10T12:14:38.912Z,14.37
2023-05-10T12:17:05.929Z,14.00
2023-05-10T12:19:39.666Z,14.90
2023-05-10T12:22:06.900Z,13.80
2023-05-10T12:24:35.350Z,15.30
2023-05-10T12:29:51.240Z,14.73
2023-05-10T12:32:18.324Z,11.90
2023-05-10T12:34:48.085Z,13.90
2023-05-10T12:37:15.240Z,12.40
2023-05-10T12:39:42.773Z,14.03
2023-05-10T12:42:09.855Z,15.23
2023-05-10T12:44:36.916Z,16.83
2023-05-10T12:47:04.032Z,16.13
2023-05-10T12:49:31.075Z,16.90
2023-05-10T12:51:59.458Z,19.87
2023-05-10T12:54:26.567Z,21.07
2023-05-10T12:56:53.588Z,23.20
2023-05-10T12:59:20.624Z,21.73
2023-05-10T13:01:47.769Z,19.57
2023-05-10T13:04:14.944Z,17.63
2023-05-10T13:06:42.192Z,18.47
2023-05-10T13:09:10.602Z,19.70
2023-05-10T13:11:37.732Z,19.43
2023-05-10T13:14:04.796Z,20.37
2023-05-10T13:16:31.901Z,21.30
2023-05-10T13:18:59.092Z,24.43
2023-05-10T13:21:26.255Z,20.83
2023-05-10T13:23:53.319Z,20.70
2023-05-10T13:26:21.750Z,20.30
2023-05-10T13:28:48.820Z,19.57
2023-05-10T13:31:16.026Z,21.30
2023-05-10T13:33:43.150Z,21.87
2023-05-10T13:36:10.302Z,20.27
2023-05-10T13:38:37.376Z,22.57
2023-05-10T13:41:04.679Z,21.50
2023-05-10T13:43:33.133Z,22.27
2023-05-10T13:46:00.380Z,21.33
2023-05-10T13:48:28.265Z,23.13
2023-05-10T13:50:55.529Z,23.10
2023-05-10T13:53:22.595Z,20.27
2023-05-10T13:55:50.815Z,20.60
2023-05-10T13:58:17.959Z,16.87
2023-05-10T14:00:46.361Z,16.23
2023-05-10T14:03:13.748Z,16.03
2023-05-10T14:05:40.843Z,15.20
2023-05-10T14:08:07.955Z,12.53
2023-05-10T14:10:35.096Z,13.00
2023-05-10T14:13:02.123Z,9.87
2023-05-10T14:15:29.217Z,9.80
2023-05-10T14:17:57.604Z,8.73
2023-05-10T14:20:24.660Z,10.43
2023-05-10T14:22:51.731Z,9.77
2023-05-10T14:25:19.443Z,10.27
2023-05-10T14:27:46.675Z,8.67
2023-05-10T14:30:14.047Z,10.83
2023-05-10T14:32:41.099Z,11.07
2023-05-10T14:35:12.217Z,10.93
2023-05-10T14:37:40.217Z,12.07
2023-05-10T14:40:07.994Z,11.50
2023-05-10T14:42:35.076Z,10.90
2023-05-10T14:45:02.109Z,10.13
2023-05-10T14:47:29.232Z,11.40
2023-05-10T14:49:56.392Z,10.50
2023-05-10T14:52:24.786Z,11.73
2023-05-10T14:54:51.850Z,11.53
2023-05-10T14:57:18.884Z,11.80
2023-05-10T14:59:45.893Z,11.67
2023-05-10T15:02:13.479Z,12.10
2023-05-10T15:04:40.906Z,12.80
2023-05-10T15:07:08.237Z,13.43
2023-05-10T15:09:36.627Z,13.30
2023-05-10T15:12:03.722Z,12.00
2023-05-10T15:14:30.772Z,11.50
2023-05-10T15:16:57.787Z,12.90
2023-05-10T15:19:24.822Z,11.77
2023-05-10T15:21:51.866Z,11.03
2023-05-10T15:24:18.877Z,11.03
2023-05-10T15:26:47.342Z,11.07
2023-05-10T15:29:14.390Z,12.00
2023-05-10T15:31:41.509Z,11.07
2023-05-10T15:34:08.672Z,10.27
2023-05-10T15:36:35.688Z,11.40
2023-05-10T15:39:02.695Z,11.20
2023-05-10T15:41:29.748Z,11.07
2023-05-10T15:43:58.632Z,10.63
2023-05-10T15:46:25.697Z,9.00
2023-05-10T15:48:52.758Z,9.73
2023-05-10T15:51:19.828Z,10.63
2023-05-10T15:54:00.433Z,10.30
2023-05-10T15:56:33.494Z,10.33
2023-05-10T15:59:01.921Z,8.27
2023-05-10T16:01:29.144Z,8.10
2023-05-10T16:03:56.339Z,10.50
2023-05-10T16:06:23.418Z,9.93
2023-05-10T16:08:52.904Z,9.20
2023-05-10T16:11:21.678Z,10.43
2023-05-10T16:13:48.865Z,10.33
2023-05-10T16:16:17.332Z,8.30
2023-05-10T16:18:44.535Z,8.73
2023-05-10T16:21:11.757Z,9.37
2023-05-10T16:23:38.804Z,8.70
2023-05-10T16:26:05.847Z,9.17
2023-05-10T16:28:32.896Z,9.07
2023-05-10T16:30:59.963Z,9.13
2023-05-10T16:33:28.482Z,7.03
2023-05-10T16:35:55.560Z,7.27
2023-05-10T16:38:22.610Z,6.93
2023-05-10T16:40:50.051Z,8.47
2023-05-10T16:43:17.136Z,6.97
2023-05-10T16:45:44.190Z,6.27
2023-05-10T16:48:11.239Z,6.50
2023-05-10T16:50:39.598Z,6.73
2023-05-10T16:53:06.680Z,5.80
2023-05-10T16:55:33.737Z,5.57
2023-05-10T16:58:00.867Z,3.60
2023-05-10T17:00:28.008Z,3.97
2023-05-10T17:02:55.348Z,4.00
2023-05-10T17:05:22.778Z,5.03
2023-05-10T17:07:51.196Z,2.93
2023-05-10T17:10:18.553Z,2.83
2023-05-10T17:12:46.030Z,2.50
2023-05-10T17:15:13.274Z,1.97
2023-05-10T17:17:40.432Z,2.43
2023-05-10T17:20:08.399Z,2.27
2023-05-10T17:22:35.542Z,1.87
2023-05-10T17:25:04.115Z,2.70
2023-05-10T17:27:31.150Z,2.20
2023-05-10T17:29:58.395Z,2.07
2023-05-10T17:32:25.733Z,2.30
2023-05-10T17:34:52.913Z,2.60
2023-05-10T17:37:19.920Z,1.93
2023-05-10T17:39:47.013Z,2.30
2023-05-10T17:42:15.443Z,2.30
2023-05-10T17:44:42.514Z,3.20
2023-05-10T17:47:09.562Z,3.13
2023-05-10T17:49:36.634Z,2.80
2023-05-10T17:52:03.735Z,3.83
2023-05-10T17:54:30.850Z,2.53
2023-05-10T17:56:57.946Z,2.43
2023-05-10T17:59:26.381Z,2.53
2023-05-10T18:01:53.502Z,1.80
2023-05-10T18:04:20.592Z,2.43
2023-05-10T18:06:47.711Z,3.10
2023-05-10T18:09:14.827Z,2.83
2023-05-10T18:11:41.934Z,3.30
2023-05-10T18:14:09.088Z,3.40
2023-05-10T18:16:37.545Z,3.20
2023-05-10T18:19:04.807Z,3.17
2023-05-10T18:21:32.036Z,3.10
2023-05-10T18:23:59.146Z,2.90
2023-05-10T18:26:26.247Z,3.17
2023-05-10T18:28:53.389Z,3.30
2023-05-10T18:31:20.460Z,3.00
2023-05-10T18:33:48.991Z,3.30
2023-05-10T18:36:16.092Z,3.10
2023-05-10T18:38:43.205Z,2.83
2023-05-10T18:41:10.286Z,3.33
2023-05-10T18:43:37.417Z,2.77
2023-05-10T18:46:04.517Z,2.80
2023-05-10T18:48:31.678Z,3.17
2023-05-10T18:51:00.178Z,2.67
2023-05-10T18:53:27.385Z,3.13
2023-05-10T18:55:57.740Z,2.60
2023-05-10T18:58:24.960Z,2.77
2023-05-10T19:00:52.628Z,3.20
2023-05-10T19:03:19.723Z,3.10
2023-05-10T19:05:46.769Z,2.50
2023-05-10T19:08:15.252Z,2.30
2023-05-10T19:10:42.307Z,3.67
2023-05-10T19:13:09.375Z,2.97
2023-05-10T19:15:36.509Z,2.80
2023-05-10T19:18:04.531Z,3.00
2023-05-10T19:20:31.675Z,2.50
2023-05-10T19:23:09.766Z,3.40
2023-05-10T19:25:38.892Z,3.50
2023-05-10T19:28:05.989Z,3.80
2023-05-10T19:30:33.147Z,4.40
2023-05-10T19:33:00.501Z,4.10
2023-05-10T19:35:27.616Z,4.30
2023-05-10T19:37:54.771Z,5.50
2023-05-10T19:40:21.912Z,5.80
2023-05-10T19:42:50.325Z,5.77
2023-05-10T19:45:17.727Z,5.77
2023-05-10T19:47:45.029Z,6.33
2023-05-10T19:50:12.200Z,5.53
2023-05-10T19:52:39.351Z,5.77
2023-05-10T19:55:06.992Z,5.90
2023-05-10T19:57:34.109Z,7.50
2023-05-10T20:00:02.587Z,6.37
2023-05-10T20:02:38.357Z,6.20
2023-05-10T20:05:05.802Z,6.50
2023-05-10T20:07:32.871Z,5.40
2023-05-10T20:10:00.124Z,6.70
2023-05-10T20:12:27.811Z,6.23
2023-05-10T20:14:54.986Z,6.63
2023-05-10T20:17:23.349Z,6.70
2023-05-10T20:19:50.414Z,6.03
2023-05-10T20:22:17.446Z,6.37
2023-05-10T20:24:44.536Z,6.10
2023-05-10T20:27:11.557Z,6.87
2023-05-10T20:29:38.579Z,7.10
2023-05-10T20:32:05.872Z,7.53
2023-05-10T20:34:34.742Z,6.77
2023-05-10T20:37:01.907Z,6.80
2023-05-10T20:39:29.034Z,7.00
2023-05-10T20:41:56.081Z,7.90
2023-05-10T20:44:23.173Z,7.97
2023-05-10T20:46:50.227Z,8.13
2023-05-10T20:49:17.318Z,8.07
2023-05-10T20:51:45.736Z,8.03
2023-05-10T20:54:12.883Z,6.87
2023-05-10T20:56:40.363Z,9.03
2023-05-10T20:59:07.439Z,7.03
2023-05-10T21:01:34.525Z,8.10
2023-05-10T21:04:01.555Z,9.50
2023-05-10T21:06:28.588Z,9.10
2023-05-10T21:08:56.992Z,8.57
2023-05-10T21:11:24.155Z,8.47
2023-05-10T21:13:51.480Z,8.37
2023-05-10T21:16:18.642Z,8.10
2023-05-10T21:18:45.725Z,9.63
2023-05-10T21:21:12.823Z,9.30
2023-05-10T21:23:39.954Z,10.30
2023-05-10T21:26:08.358Z,9.50
2023-05-10T21:28:35.409Z,9.47
2023-05-10T21:31:02.483Z,10.00
2023-05-10T21:33:29.578Z,9.80
2023-05-10T21:35:57.077Z,9.87
2023-05-10T21:38:24.220Z,10.23
2023-05-10T21:40:51.261Z,10.07
2023-05-10T21:43:19.692Z,9.80
2023-05-10T21:45:46.770Z,8.90
2023-05-10T21:48:14.106Z,9.50
2023-05-10T21:50:41.210Z,9.57
2023-05-10T21:53:08.301Z,9.80
2023-05-10T21:55:35.389Z,9.70
2023-05-10T21:58:02.476Z,9.53
2023-05-10T22:00:32.798Z,10.50
2023-05-10T22:03:01.285Z,11.27
2023-05-10T22:05:28.523Z,11.23
2023-05-10T22:07:55.568Z,11.63
2023-05-10T22:10:22.600Z,11.50
2023-05-10T22:12:49.605Z,11.60
2023-05-10T22:15:16.695Z,11.30
2023-05-10T22:17:45.139Z,11.40
2023-05-10T22:20:12.407Z,12.17
2023-05-10T22:22:39.487Z,12.07
2023-05-10T22:25:06.975Z,11.73
2023-05-10T22:27:34.011Z,12.40
2023-05-10T22:30:01.063Z,12.93
2023-05-10T22:32:28.293Z,10.03
2023-05-10T22:34:56.827Z,10.30
2023-05-10T22:37:23.968Z,9.83
2023-05-10T22:39:51.078Z,12.10
2023-05-10T22:42:18.139Z,10.50
2023-05-10T22:44:45.183Z,12.43
2023-05-10T22:47:12.228Z,13.50
2023-05-10T22:49:39.215Z,12.63
2023-05-10T22:52:07.692Z,13.20
2023-05-10T22:54:36.289Z,13.43
2023-05-10T22:57:03.527Z,13.80
2023-05-10T22:59:30.607Z,13.40
2023-05-10T23:01:57.741Z,14.57
2023-05-10T23:04:25.053Z,13.90
2023-05-10T23:06:52.252Z,14.07
2023-05-10T23:09:20.613Z,14.53
2023-05-10T23:11:47.672Z,14.03
2023-05-10T23:14:14.765Z,14.47
2023-05-10T23:16:41.909Z,14.40
2023-05-10T23:19:09.060Z,16.17
2023-05-10T23:21:36.179Z,15.73
2023-05-10T23:24:03.298Z,15.80
2023-05-10T23:26:31.798Z,17.90
2023-05-10T23:28:58.854Z,17.40
2023-05-10T23:31:25.948Z,17.80
2023-05-10T23:33:53.048Z,16.07
2023-05-10T23:36:20.127Z,18.20
2023-05-10T23:38:47.170Z,17.80
2023-05-10T23:41:14.358Z,18.13
2023-05-10T23:43:42.772Z,18.27
2023-05-10T23:46:09.944Z,17.90
2023-05-10T23:48:37.188Z,18.87
2023-05-10T23:51:04.444Z,18.33
2023-05-10T23:53:31.533Z,20.20
2023-05-10T23:55:58.550Z,23.37
2023-05-10T23:58:25.674Z,20.97
